createdAt,value
2022-08-05T05:03:20.258Z,25.86
2022-08-05T05:04:29.986Z,25.84
2022-08-05T05:05:28.918Z,25.82
2022-08-05T05:06:39.867Z,25.82
2022-08-05T05:08:42.752Z,25.82
2022-08-05T05:09:40.797Z,25.82
2022-08-05T05:10:24.557Z,25.85
2022-08-05T05:11:11.660Z,25.85
2022-08-05T05:12:02.881Z,25.86
2022-08-05T05:14:08.807Z,25.86
2022-08-05T05:14:58.001Z,25.83
2022-08-05T05:15:56.594Z,25.88
2022-08-05T05:16:50.529Z,25.84
2022-08-05T05:17:57.037Z,25.86
2022-08-05T05:18:56.941Z,25.89
2022-08-05T05:19:47.369Z,25.89
2022-08-05T05:20:34.357Z,25.87
2022-08-05T05:21:20.244Z,25.91
2022-08-05T05:22:22.614Z,25.85
2022-08-05T05:23:19.858Z,25.85
2022-08-05T05:24:17.634Z,25.84
2022-08-05T05:25:20.101Z,25.88
2022-08-05T05:26:18.311Z,25.86
2022-08-05T05:27:17.273Z,25.88
2022-08-05T05:30:04.480Z,25.84
2022-08-05T05:30:49.745Z,25.85
2022-08-05T05:32:17.005Z,25.82
2022-08-05T05:33:14.016Z,25.82
2022-08-05T05:36:18.182Z,25.76
2022-08-05T05:37:29.266Z,25.74
2022-08-05T05:39:36.337Z,25.78
2022-08-05T05:40:21.633Z,25.81
2022-08-05T05:41:16.467Z,25.82
2022-08-05T05:42:11.939Z,25.79
2022-08-05T05:43:12.527Z,25.82
2022-08-05T05:44:37.561Z,25.77
2022-08-05T05:45:28.569Z,25.82
2022-08-05T05:46:18.996Z,25.80
2022-08-05T05:48:06.333Z,25.81
2022-08-05T05:48:27.592Z,25.80
2022-08-05T05:49:27.920Z,25.74
2022-08-05T05:50:24.601Z,25.74
2022-08-05T05:51:17.635Z,25.69
2022-08-05T05:53:59.325Z,25.75
2022-08-05T05:54:50.794Z,25.73
2022-08-05T05:55:51.673Z,25.74
2022-08-05T05:56:53.195Z,25.74
2022-08-05T05:57:52.568Z,25.73
2022-08-05T05:58:35.634Z,25.70
2022-08-05T06:01:30.346Z,25.70
2022-08-05T06:02:35.215Z,25.72
2022-08-05T06:04:00.629Z,25.71
2022-08-05T06:05:54.127Z,25.67
2022-08-05T06:07:57.826Z,25.65
2022-08-05T06:08:49.240Z,25.66
2022-08-05T06:09:59.909Z,25.67
2022-08-05T06:10:52.619Z,25.71
2022-08-05T06:16:27.309Z,25.74
2022-08-05T06:16:51.965Z,25.70
2022-08-05T06:17:52.434Z,25.67
2022-08-05T06:52:44.339Z,25.66
2022-08-05T06:53:39.418Z,25.63
2022-08-05T06:54:19.067Z,25.61
2022-08-05T06:55:03.843Z,25.64
2022-08-05T06:55:53.676Z,25.69
2022-08-05T06:56:36.539Z,25.64
2022-08-05T06:58:03.132Z,25.65
2022-08-05T06:59:20.734Z,25.62
2022-08-05T07:00:29.629Z,25.62
2022-08-05T07:08:59.089Z,25.64
2022-08-05T07:10:57.356Z,25.67
2022-08-05T07:14:30.192Z,25.70
2022-08-05T07:15:13.124Z,25.64
2022-08-05T07:17:59.046Z,25.68
2022-08-05T07:18:02.124Z,25.65
2022-08-05T07:18:29.183Z,25.67
2022-08-05T07:20:32.920Z,25.67
2022-08-05T07:21:28.213Z,25.60
2022-08-05T07:22:30.354Z,25.62
2022-08-05T07:23:26.442Z,25.63
2022-08-05T07:24:17.574Z,25.59
2022-08-05T07:25:23.486Z,25.59
2022-08-05T07:26:06.182Z,25.63
2022-08-05T07:26:54.392Z,25.62
2022-08-05T07:27:57.722Z,25.57
2022-08-05T07:32:10.763Z,25.62
2022-08-05T07:34:21.487Z,25.56
2022-08-05T07:35:56.778Z,25.64
2022-08-05T07:36:25.676Z,25.61
2022-08-05T07:37:20.746Z,25.59
2022-08-05T07:38:32.001Z,25.57
2022-08-05T07:40:04.419Z,25.57
2022-08-05T07:42:14.747Z,25.57
2022-08-05T07:43:51.420Z,25.54
2022-08-05T09:26:01.136Z,25.02
2022-08-05T09:26:37.800Z,24.97
2022-08-05T09:28:05.874Z,24.96
2022-08-05T09:28:38.374Z,24.96
2022-08-05T09:29:31.002Z,24.95
2022-08-05T09:30:23.520Z,24.96
2022-08-05T09:31:43.353Z,24.94
2022-08-05T09:32:49.362Z,24.93
2022-08-05T09:33:21.277Z,24.95
2022-08-05T09:34:11.204Z,24.96
2022-08-05T09:35:00.029Z,24.96
2022-08-05T09:35:50.251Z,24.92
2022-08-05T09:36:54.930Z,24.95
2022-08-05T09:38:12.480Z,24.93
2022-08-05T09:39:21.940Z,24.90
2022-08-05T09:42:28.694Z,24.92
2022-08-05T09:43:15.311Z,24.90
2022-08-05T09:43:59.841Z,24.93
2022-08-05T09:44:46.034Z,24.87
2022-08-05T09:46:07.169Z,24.91
2022-08-05T09:46:58.164Z,24.87
2022-08-05T09:47:55.159Z,24.88
2022-08-05T09:51:15.297Z,24.86
2022-08-05T09:52:01.412Z,24.87
2022-08-05T09:52:47.401Z,24.83
2022-08-05T09:53:55.195Z,24.80
2022-08-05T09:54:47.114Z,24.81
2022-08-05T09:55:57.495Z,24.82
2022-08-05T09:56:39.443Z,24.83
2022-08-05T09:58:01.555Z,24.88
2022-08-05T09:58:50.248Z,24.90
2022-08-05T09:59:35.132Z,24.90
2022-08-05T10:00:23.217Z,24.90
2022-08-05T10:01:14.709Z,24.92
2022-08-05T10:02:00.628Z,24.88
2022-08-05T10:02:49.741Z,24.85
2022-08-05T10:03:59.183Z,24.90
2022-08-05T10:04:50.831Z,24.91
2022-08-05T10:06:58.904Z,24.93
2022-08-05T10:08:34.971Z,24.91
2022-08-05T10:09:27.314Z,24.94
2022-08-05T10:10:15.720Z,24.93
2022-08-05T10:11:03.591Z,24.90
2022-08-05T10:11:49.463Z,24.90
2022-08-05T10:12:37.912Z,24.91
2022-08-05T10:15:55.026Z,24.91
2022-08-05T10:16:53.136Z,24.92
2022-08-05T10:17:56.640Z,24.86
2022-08-05T10:18:41.940Z,24.86
2022-08-05T10:19:31.878Z,24.89
2022-08-05T10:20:30.518Z,24.87
2022-08-05T10:21:16.643Z,24.89
2022-08-05T10:22:07.341Z,24.88
2022-08-05T10:22:58.479Z,24.83
2022-08-05T10:24:00.150Z,24.79
2022-08-05T10:24:46.000Z,24.82
2022-08-05T10:25:29.270Z,24.78
2022-08-05T10:26:15.347Z,24.77
2022-08-05T10:27:03.722Z,24.78
2022-08-05T10:28:13.422Z,24.75
2022-08-05T10:29:08.534Z,24.77
2022-08-05T10:31:20.945Z,24.77
2022-08-05T10:32:49.238Z,24.83
2022-08-05T10:32:51.791Z,24.80
2022-08-05T10:33:35.162Z,24.80
2022-08-05T10:34:19.409Z,24.79
2022-08-05T10:35:10.836Z,24.85
2022-08-05T10:35:59.665Z,24.86
2022-08-05T10:36:45.588Z,24.84
2022-08-05T10:37:40.184Z,24.77
2022-08-05T10:38:38.167Z,24.78
2022-08-05T10:40:03.235Z,24.76
2022-08-05T10:40:34.467Z,24.76
2022-08-05T10:41:25.887Z,24.82
2022-08-05T10:42:38.193Z,24.79
2022-08-05T10:44:47.721Z,24.77
2022-08-05T10:45:47.229Z,24.83
2022-08-05T10:47:03.238Z,24.80
2022-08-05T10:48:31.359Z,24.81
2022-08-05T10:49:10.434Z,24.82
2022-08-05T10:50:31.935Z,24.80
2022-08-05T10:51:48.686Z,24.77
2022-08-05T10:52:58.716Z,24.81
2022-08-05T10:54:56.443Z,24.86
2022-08-05T10:56:04.675Z,24.79
2022-08-05T10:57:02.792Z,24.82
2022-08-05T11:00:04.362Z,24.85
2022-08-05T11:00:23.138Z,24.76
2022-08-05T11:01:13.289Z,24.78
2022-08-05T11:02:37.718Z,24.81
2022-08-05T11:05:50.797Z,24.84
2022-08-05T11:06:37.272Z,24.74
2022-08-05T11:07:33.157Z,24.77
2022-08-05T11:08:37.311Z,24.76
2022-08-05T11:09:39.385Z,24.72
2022-08-05T11:10:50.354Z,24.69
2022-08-05T11:11:53.225Z,24.74
2022-08-05T11:12:54.458Z,24.66
2022-08-05T11:13:58.081Z,24.71
2022-08-05T11:15:11.947Z,24.69
2022-08-05T11:16:00.688Z,24.70
2022-08-05T11:16:57.096Z,24.69
2022-08-05T11:17:59.309Z,24.70
2022-08-05T11:18:49.507Z,24.71
2022-08-05T11:20:49.497Z,24.73
2022-08-05T11:21:49.569Z,24.73
2022-08-05T11:23:05.886Z,24.74
2022-08-05T11:24:05.409Z,24.76
2022-08-05T11:26:03.200Z,24.74
2022-08-05T11:26:13.692Z,24.75
2022-08-05T11:26:59.062Z,24.72
2022-08-05T11:27:51.965Z,24.70
2022-08-05T11:28:48.651Z,24.71
2022-08-05T11:29:46.324Z,24.71
2022-08-05T11:30:37.726Z,24.72
2022-08-05T11:31:58.023Z,24.72
2022-08-05T11:32:32.264Z,24.77
2022-08-05T11:33:46.717Z,24.76
2022-08-05T11:35:06.848Z,24.73
2022-08-05T11:36:04.510Z,24.76
2022-08-05T11:36:57.804Z,24.79
2022-08-05T11:38:28.240Z,24.77
2022-08-05T11:38:52.390Z,24.72
2022-08-05T11:40:03.377Z,24.67
2022-08-05T11:41:35.084Z,24.65
2022-08-05T11:42:27.936Z,24.64
2022-08-05T11:43:16.338Z,24.70
2022-08-05T11:44:40.559Z,24.69
2022-08-05T11:45:23.260Z,24.70
2022-08-05T11:46:33.255Z,24.70
2022-08-05T11:47:25.192Z,24.70
2022-08-05T11:48:13.144Z,24.70
2022-08-05T11:48:46.342Z,24.70
2022-08-05T11:49:18.787Z,24.70
2022-08-05T11:49:55.038Z,24.74
2022-08-05T11:50:27.672Z,24.75
2022-08-05T11:50:59.500Z,24.73
2022-08-05T11:51:44.052Z,24.75
2022-08-05T11:52:24.144Z,24.72
2022-08-05T11:53:04.059Z,24.69
2022-08-05T11:53:40.850Z,24.70
2022-08-05T11:54:13.822Z,24.69
2022-08-05T11:54:54.822Z,24.72
2022-08-05T11:55:32.296Z,24.71
2022-08-05T11:56:08.416Z,24.74
2022-08-05T11:56:43.700Z,24.75
2022-08-05T11:57:25.015Z,24.74
2022-08-05T11:58:10.289Z,24.73
2022-08-05T11:58:44.013Z,24.73
2022-08-05T11:59:25.468Z,24.67
2022-08-05T11:59:59.232Z,24.68
2022-08-05T12:00:31.390Z,24.71
2022-08-05T12:01:02.885Z,24.74
2022-08-05T12:01:36.264Z,24.70
2022-08-05T12:02:24.012Z,24.74
2022-08-05T12:03:15.376Z,24.65
2022-08-05T12:03:55.518Z,24.74
2022-08-05T12:04:28.815Z,24.72
2022-08-05T12:05:07.662Z,24.69
2022-08-05T12:05:43.447Z,24.75
2022-08-05T12:06:15.574Z,24.67
2022-08-05T12:06:48.768Z,24.74
2022-08-05T12:08:02.614Z,24.75
2022-08-05T12:08:18.073Z,24.74
2022-08-05T12:08:51.515Z,24.72
2022-08-05T12:09:38.680Z,24.70
2022-08-05T12:10:18.422Z,24.71
2022-08-05T12:10:52.555Z,24.66
2022-08-05T12:11:24.781Z,24.70
2022-08-05T12:11:59.994Z,24.71
2022-08-05T12:12:34.194Z,24.66
2022-08-05T12:13:15.839Z,24.72
2022-08-05T12:13:58.765Z,24.73
2022-08-05T12:14:49.006Z,24.74
2022-08-05T12:15:35.892Z,24.67
2022-08-05T12:16:15.692Z,24.73
2022-08-05T12:16:48.039Z,24.74
2022-08-05T12:18:03.429Z,24.74
2022-08-05T12:18:12.322Z,24.72
2022-08-05T12:18:48.656Z,24.72
2022-08-05T12:20:16.990Z,24.69
2022-08-05T12:20:26.248Z,24.70
2022-08-05T12:21:11.823Z,24.67
2022-08-05T12:21:47.295Z,24.76
2022-08-05T12:22:21.208Z,24.76
2022-08-05T12:23:07.518Z,24.78
2022-08-05T12:23:42.925Z,24.79
2022-08-05T12:24:18.525Z,24.82
2022-08-05T12:24:50.646Z,24.82
2022-08-05T12:25:25.673Z,24.81
2022-08-05T12:25:59.959Z,24.76
2022-08-05T12:26:32.117Z,24.78
2022-08-05T12:27:09.519Z,24.77
2022-08-05T12:27:52.933Z,24.76
2022-08-05T12:28:34.492Z,24.72
2022-08-05T12:29:09.606Z,24.77
2022-08-05T12:29:43.284Z,24.77
2022-08-05T12:30:32.143Z,24.75
2022-08-05T12:31:04.024Z,24.74
2022-08-05T12:31:47.680Z,24.74
2022-08-05T12:32:21.770Z,24.79
2022-08-05T12:32:57.102Z,24.79
2022-08-05T12:33:38.825Z,24.76
2022-08-05T12:34:14.615Z,24.81
2022-08-05T12:34:52.198Z,24.82
2022-08-05T12:35:23.716Z,24.80
2022-08-05T12:36:09.272Z,24.74
2022-08-05T12:36:41.260Z,24.73
2022-08-05T12:37:17.600Z,24.74
2022-08-05T12:37:53.462Z,24.76
2022-08-05T12:38:30.126Z,24.71
2022-08-05T12:39:05.645Z,24.73
2022-08-05T12:39:39.007Z,24.73
2022-08-05T12:40:11.302Z,24.76
2022-08-05T12:40:58.241Z,24.74
2022-08-05T12:41:34.191Z,24.79
2022-08-05T12:42:10.073Z,24.78
2022-08-05T12:42:46.581Z,24.76
2022-08-05T12:43:21.216Z,24.75
2022-08-05T12:43:52.835Z,24.77
2022-08-05T12:44:33.928Z,24.77
2022-08-05T12:45:09.542Z,24.80
2022-08-05T12:45:51.293Z,24.81
2022-08-05T12:46:29.390Z,24.81
2022-08-05T12:47:01.880Z,24.77
2022-08-05T12:47:33.760Z,24.75
2022-08-05T12:48:27.843Z,24.72
2022-08-05T12:49:14.298Z,24.74
2022-08-05T12:50:04.464Z,24.72
2022-08-05T12:50:37.620Z,24.73
2022-08-05T12:51:18.898Z,24.73
2022-08-05T12:52:12.955Z,24.75
2022-08-05T12:52:57.945Z,24.78
2022-08-05T12:53:36.727Z,24.75
2022-08-05T12:54:16.581Z,24.76
2022-08-05T12:54:54.929Z,24.78
2022-08-05T12:55:28.325Z,24.79
2022-08-05T12:56:00.082Z,24.77
2022-08-05T12:56:34.857Z,24.75
2022-08-05T12:57:09.637Z,24.76
2022-08-05T12:58:50.059Z,24.82
2022-08-05T12:58:50.396Z,24.79
2022-08-05T12:59:46.861Z,24.83
2022-08-05T13:02:00.102Z,24.82
2022-08-05T13:02:01.454Z,24.81
2022-08-05T13:02:07.818Z,24.81
2022-08-05T13:02:40.846Z,24.80
2022-08-05T13:03:12.744Z,24.82
2022-08-05T13:03:48.884Z,24.82
2022-08-05T13:04:23.283Z,24.84
2022-08-05T13:04:56.854Z,24.84
2022-08-05T13:05:37.406Z,24.84
2022-08-05T13:06:11.958Z,24.80
2022-08-05T13:06:51.850Z,24.81
2022-08-05T13:07:47.831Z,24.81
2022-08-05T13:08:17.312Z,24.74
2022-08-05T13:08:52.009Z,24.75
2022-08-05T13:09:28.590Z,24.73
2022-08-05T13:10:01.090Z,24.78
2022-08-05T13:10:32.793Z,24.80
2022-08-05T13:11:04.518Z,24.75
2022-08-05T13:12:02.514Z,24.69
2022-08-05T13:12:29.978Z,24.69
2022-08-05T13:13:02.581Z,24.69
2022-08-05T13:14:06.218Z,24.71
2022-08-05T13:14:36.312Z,24.76
2022-08-05T13:15:13.713Z,24.77
2022-08-05T13:15:50.508Z,24.74
2022-08-05T13:16:24.997Z,24.73
2022-08-05T13:16:57.555Z,24.70
2022-08-05T13:17:32.080Z,24.74
2022-08-05T13:18:18.855Z,24.74
2022-08-05T13:18:55.243Z,24.75
2022-08-05T13:19:51.692Z,24.72
2022-08-05T13:20:24.648Z,24.71
2022-08-05T13:20:57.700Z,24.76
2022-08-05T13:21:38.068Z,24.72
2022-08-05T13:22:29.598Z,24.70
2022-08-05T13:23:01.451Z,24.65
2022-08-05T13:23:38.868Z,24.70
2022-08-05T13:24:27.687Z,24.66
2022-08-05T13:25:19.114Z,24.73
2022-08-05T13:25:58.973Z,24.71
2022-08-05T13:26:32.647Z,24.71
2022-08-05T13:27:04.382Z,24.73
2022-08-05T13:27:37.327Z,24.72
2022-08-05T13:28:10.679Z,24.73
2022-08-05T13:28:44.178Z,24.75
2022-08-05T13:29:18.936Z,24.73
2022-08-05T13:29:59.459Z,24.72
2022-08-05T13:30:42.528Z,24.76
2022-08-05T13:31:14.658Z,24.73
2022-08-05T13:32:03.752Z,24.73
2022-08-05T13:32:39.474Z,24.75
2022-08-05T13:33:14.257Z,24.77
2022-08-05T13:34:23.937Z,24.75
2022-08-05T13:34:57.017Z,24.77
2022-08-05T13:35:42.980Z,24.78
2022-08-05T13:36:19.346Z,24.79
2022-08-05T13:36:52.777Z,24.75
2022-08-05T13:37:34.475Z,24.76
2022-08-05T13:38:06.324Z,24.73
2022-08-05T13:38:42.528Z,24.76
2022-08-05T13:40:13.569Z,24.78
2022-08-05T13:40:13.704Z,24.76
2022-08-05T13:40:51.467Z,24.78
2022-08-05T13:41:35.116Z,24.76
2022-08-05T13:42:14.576Z,24.77
2022-08-05T13:42:46.586Z,24.78
2022-08-05T13:43:22.203Z,24.78
2022-08-05T13:43:54.749Z,24.81
2022-08-05T13:44:26.699Z,24.82
2022-08-05T13:44:58.987Z,24.81
2022-08-05T13:45:31.023Z,24.81
2022-08-05T13:46:11.503Z,24.80
2022-08-05T13:47:01.738Z,24.79
2022-08-05T13:47:35.919Z,24.80
2022-08-05T13:48:57.932Z,24.83
2022-08-05T13:49:17.379Z,24.81
2022-08-05T13:49:49.227Z,24.81
2022-08-05T13:50:20.831Z,24.80
2022-08-05T13:50:52.410Z,24.77
2022-08-05T13:51:28.736Z,24.79
2022-08-05T13:52:09.656Z,24.81
2022-08-05T13:52:42.065Z,24.82
2022-08-05T13:53:16.249Z,24.81
2022-08-05T13:53:48.518Z,24.83
2022-08-05T13:54:21.245Z,24.81
2022-08-05T13:54:56.893Z,24.84
2022-08-05T13:55:41.484Z,24.84
2022-08-05T13:56:20.190Z,24.83
2022-08-05T13:56:52.007Z,24.82
2022-08-05T13:57:24.395Z,24.83
2022-08-05T13:57:56.009Z,24.84
2022-08-05T13:58:30.767Z,24.84
2022-08-05T13:59:05.973Z,24.85
2022-08-05T13:59:57.429Z,24.82
2022-08-05T14:00:31.074Z,24.84
2022-08-05T14:01:02.620Z,24.87
2022-08-05T14:01:40.401Z,24.84
2022-08-05T14:02:20.050Z,24.81
2022-08-05T14:02:51.925Z,24.85
2022-08-05T14:03:23.653Z,24.86
2022-08-05T14:03:55.244Z,24.87
2022-08-05T14:04:31.260Z,24.85
2022-08-05T14:05:05.200Z,24.86
2022-08-05T14:06:04.587Z,24.88
2022-08-05T14:06:34.771Z,24.84
2022-08-05T14:07:25.375Z,24.85
2022-08-05T14:08:02.843Z,24.85
2022-08-05T14:08:38.764Z,24.85
2022-08-05T14:09:11.254Z,24.85
2022-08-05T14:09:46.408Z,24.87
2022-08-05T14:10:28.640Z,24.88
2022-08-05T14:11:08.129Z,24.87
2022-08-05T14:12:04.241Z,24.85
2022-08-05T14:12:48.735Z,24.85
2022-08-05T14:13:20.614Z,24.86
2022-08-05T14:13:56.903Z,24.86
2022-08-05T14:14:33.643Z,24.87
2022-08-05T14:15:05.894Z,24.87
2022-08-05T14:16:04.816Z,24.88
2022-08-05T14:16:40.974Z,24.90
2022-08-05T14:17:16.697Z,24.90
2022-08-05T14:17:48.688Z,24.88
2022-08-05T14:18:23.463Z,24.88
2022-08-05T14:18:55.726Z,24.88
2022-08-05T14:19:27.993Z,24.84
2022-08-05T14:20:07.634Z,24.84
2022-08-05T14:20:39.480Z,24.83
2022-08-05T14:22:07.168Z,24.86
2022-08-05T14:22:12.132Z,24.87
2022-08-05T14:22:50.261Z,24.85
2022-08-05T14:23:24.663Z,24.84
2022-08-05T14:23:57.640Z,24.84
2022-08-05T14:24:32.267Z,24.84
2022-08-05T14:25:06.416Z,24.87
2022-08-05T14:25:58.603Z,24.85
2022-08-05T14:26:38.830Z,24.87
2022-08-05T14:27:19.373Z,24.84
2022-08-05T14:27:51.034Z,24.82
2022-08-05T14:28:26.355Z,24.81
2022-08-05T14:28:58.190Z,24.81
2022-08-05T14:29:31.872Z,24.81
2022-08-05T14:30:04.298Z,24.79
2022-08-05T14:30:36.058Z,24.83
2022-08-05T14:31:17.266Z,24.88
2022-08-05T14:32:12.335Z,24.90
2022-08-05T14:32:45.866Z,24.90
2022-08-05T14:33:22.617Z,24.89
2022-08-05T14:33:59.566Z,24.91
2022-08-05T14:34:35.117Z,24.90
2022-08-05T14:35:10.618Z,24.95
2022-08-05T14:35:51.518Z,25.03
2022-08-05T14:36:23.487Z,24.94
2022-08-05T14:36:54.991Z,24.89
2022-08-05T14:37:42.192Z,24.91
2022-08-05T14:38:31.833Z,24.90
2022-08-05T14:39:04.983Z,24.94
2022-08-05T14:39:50.013Z,24.91
2022-08-05T14:40:28.134Z,24.88
2022-08-05T14:40:59.791Z,24.89
2022-08-05T14:41:32.121Z,24.92
2022-08-05T14:42:20.848Z,24.91
2022-08-05T14:42:53.011Z,24.92
2022-08-05T14:43:57.456Z,24.91
2022-08-05T14:44:20.634Z,24.90
2022-08-05T14:44:53.653Z,24.90
2022-08-05T14:45:28.200Z,24.91
2022-08-05T14:45:59.856Z,24.87
2022-08-05T14:46:31.407Z,24.91
2022-08-05T14:47:03.006Z,24.91
2022-08-05T14:48:05.084Z,24.91
2022-08-05T14:48:33.376Z,24.93
2022-08-05T14:49:07.252Z,24.91
2022-08-05T14:49:59.494Z,24.92
2022-08-05T14:50:30.918Z,24.90
2022-08-05T14:51:03.155Z,24.90
2022-08-05T14:51:38.235Z,24.88
2022-08-05T14:52:10.124Z,24.84
2022-08-05T14:52:53.175Z,24.85
2022-08-05T14:53:29.805Z,24.88
2022-08-05T14:54:26.102Z,24.85
2022-08-05T14:54:53.441Z,24.84
2022-08-05T14:55:25.177Z,24.84
2022-08-05T14:55:56.886Z,24.81
2022-08-05T14:56:28.505Z,24.83
2022-08-05T14:57:00.871Z,24.80
2022-08-05T14:57:56.037Z,24.84
2022-08-05T14:58:28.354Z,24.87
2022-08-05T14:59:01.006Z,24.85
2022-08-05T14:59:35.814Z,24.85
2022-08-05T15:00:08.140Z,24.88
2022-08-05T15:00:58.548Z,24.86
2022-08-05T15:01:48.666Z,24.87
2022-08-05T15:02:21.401Z,24.82
2022-08-05T15:02:53.257Z,24.80
2022-08-05T15:03:24.897Z,24.83
2022-08-05T15:03:56.447Z,24.83
2022-08-05T15:04:29.063Z,24.84
2022-08-05T15:05:00.722Z,24.83
2022-08-05T15:06:08.159Z,24.83
2022-08-05T15:06:31.630Z,24.84
2022-08-05T15:07:03.206Z,24.80
2022-08-05T15:08:12.206Z,24.80
2022-08-05T15:08:58.008Z,24.85
2022-08-05T15:09:19.430Z,24.84
2022-08-05T15:10:10.131Z,24.85
2022-08-05T15:10:41.690Z,24.84
2022-08-05T15:11:13.180Z,24.83
2022-08-05T15:11:52.263Z,24.83
2022-08-05T15:12:26.980Z,24.82
2022-08-05T15:13:03.718Z,24.83
2022-08-05T15:13:46.344Z,24.79
2022-08-05T15:14:35.773Z,24.83
2022-08-05T15:15:15.374Z,24.85
2022-08-05T15:15:55.402Z,24.85
2022-08-05T15:16:27.934Z,24.85
2022-08-05T15:16:59.515Z,24.79
2022-08-05T15:17:46.984Z,24.79
2022-08-05T15:18:22.760Z,24.85
2022-08-05T15:18:55.179Z,24.85
2022-08-05T15:19:28.399Z,24.83
2022-08-05T15:20:02.501Z,24.84
2022-08-05T15:20:34.778Z,24.85
2022-08-05T15:21:07.682Z,24.83
2022-08-05T15:21:39.463Z,24.82
2022-08-05T15:22:11.976Z,24.80
2022-08-05T15:22:44.698Z,24.79
2022-08-05T15:23:16.384Z,24.78
2022-08-05T15:23:48.002Z,24.80
2022-08-05T15:24:21.594Z,24.81
2022-08-05T15:24:53.995Z,24.82
2022-08-05T15:25:41.386Z,24.76
2022-08-05T15:26:17.217Z,24.79
2022-08-05T15:27:03.967Z,24.79
2022-08-05T15:27:42.736Z,24.76
2022-08-05T15:28:15.505Z,24.79
2022-08-05T15:28:47.769Z,24.78
2022-08-05T15:29:23.608Z,24.81
2022-08-05T15:30:01.436Z,24.79
2022-08-05T15:30:33.488Z,24.81
2022-08-05T15:31:07.518Z,24.84
2022-08-05T15:31:40.556Z,24.83
2022-08-05T15:32:12.355Z,24.81
2022-08-05T15:32:44.084Z,24.78
2022-08-05T15:33:53.678Z,24.79
2022-08-05T15:34:31.666Z,24.82
2022-08-05T15:34:58.839Z,24.84
2022-08-05T15:35:36.387Z,24.79
2022-08-05T15:36:24.263Z,24.79
2022-08-05T15:36:57.174Z,24.83
2022-08-05T15:38:33.185Z,24.85
2022-08-05T15:38:35.497Z,24.85
2022-08-05T15:40:59.878Z,24.81
2022-08-05T15:41:01.106Z,24.85
2022-08-05T15:41:22.018Z,24.82
2022-08-05T15:41:55.555Z,24.79
2022-08-05T15:42:54.521Z,24.83
2022-08-05T15:43:21.226Z,24.85
2022-08-05T15:43:54.897Z,24.84
2022-08-05T15:44:27.833Z,24.84
2022-08-05T15:44:59.627Z,24.79
2022-08-05T15:45:38.538Z,24.83
2022-08-05T15:46:10.500Z,24.87
2022-08-05T15:46:42.056Z,24.88
2022-08-05T15:47:13.653Z,24.89
2022-08-05T15:47:45.268Z,24.87
2022-08-05T15:48:16.852Z,24.87
2022-08-05T15:48:54.598Z,24.85
2022-08-05T15:49:53.528Z,24.84
2022-08-05T15:50:25.219Z,24.85
2022-08-05T15:50:57.398Z,24.86
2022-08-05T15:52:03.651Z,24.85
2022-08-05T15:52:51.510Z,24.87
2022-08-05T15:53:13.158Z,24.88
2022-08-05T15:53:51.100Z,24.88
2022-08-05T15:54:35.292Z,24.86
2022-08-05T15:55:16.029Z,24.83
2022-08-05T15:56:01.352Z,24.84
2022-08-05T15:56:36.087Z,24.87
2022-08-05T15:57:08.034Z,24.85
2022-08-05T15:57:42.701Z,24.88
2022-08-05T15:58:17.033Z,24.88
2022-08-05T15:58:48.650Z,24.87
2022-08-05T15:59:22.475Z,24.85
2022-08-05T15:59:57.777Z,24.87
2022-08-05T16:00:50.216Z,24.87
2022-08-05T16:01:21.222Z,24.88
2022-08-05T16:02:01.214Z,24.87
2022-08-05T16:02:33.147Z,24.88
2022-08-05T16:03:04.981Z,24.87
2022-08-05T16:03:41.183Z,24.90
2022-08-05T16:04:13.185Z,24.88
2022-08-05T16:04:49.746Z,24.88
2022-08-05T16:05:21.302Z,24.87
2022-08-05T16:05:59.840Z,24.89
2022-08-05T16:06:31.481Z,24.90
2022-08-05T16:07:03.011Z,24.89
2022-08-05T16:07:37.513Z,24.89
2022-08-05T16:08:09.101Z,24.88
2022-08-05T16:08:40.590Z,24.90
2022-08-05T16:09:12.450Z,24.88
2022-08-05T16:09:46.365Z,24.86
2022-08-05T16:10:23.332Z,24.86
2022-08-05T16:10:57.171Z,24.88
2022-08-05T16:11:43.079Z,24.87
2022-08-05T16:12:15.437Z,24.91
2022-08-05T16:12:47.186Z,24.87
2022-08-05T16:13:23.843Z,24.89
2022-08-05T16:14:03.597Z,24.88
2022-08-05T16:14:35.230Z,24.89
2022-08-05T16:15:07.015Z,24.87
2022-08-05T16:15:41.224Z,24.88
2022-08-05T16:16:13.372Z,24.88
2022-08-05T16:16:53.725Z,24.88
2022-08-05T16:17:25.589Z,24.86
2022-08-05T16:17:57.702Z,24.86
2022-08-05T16:18:29.773Z,24.88
2022-08-05T16:19:01.416Z,24.89
2022-08-05T16:20:05.607Z,24.85
2022-08-05T16:20:25.400Z,24.89
2022-08-05T16:20:56.965Z,24.88
2022-08-05T16:22:00.136Z,24.89
2022-08-05T16:22:27.444Z,24.87
2022-08-05T16:23:05.377Z,24.88
2022-08-05T16:23:53.795Z,24.89
2022-08-05T16:24:40.321Z,24.84
2022-08-05T16:25:12.416Z,24.85
2022-08-05T16:25:45.155Z,24.88
2022-08-05T16:26:26.160Z,24.84
2022-08-05T16:26:59.219Z,24.87
2022-08-05T16:28:01.063Z,24.88
2022-08-05T16:28:24.262Z,24.85
2022-08-05T16:28:55.977Z,24.87
2022-08-05T16:29:27.626Z,24.88
2022-08-05T16:30:02.712Z,24.86
2022-08-05T16:30:35.994Z,24.83
2022-08-05T16:31:07.903Z,24.83
2022-08-05T16:31:57.038Z,24.81
2022-08-05T16:32:29.822Z,24.85
2022-08-05T16:33:02.227Z,24.85
2022-08-05T16:33:41.329Z,24.88
2022-08-05T16:34:13.547Z,24.87
2022-08-05T16:34:46.287Z,24.86
2022-08-05T16:35:27.702Z,24.85
2022-08-05T16:35:59.796Z,24.88
2022-08-05T16:36:34.326Z,24.86
2022-08-05T16:38:02.930Z,24.85
2022-08-05T16:38:03.685Z,24.86
2022-08-05T16:38:55.013Z,24.86
2022-08-05T16:40:04.606Z,24.84
2022-08-05T16:40:26.751Z,24.86
2022-08-05T16:41:01.559Z,24.81
2022-08-05T16:42:14.483Z,24.80
2022-08-05T16:42:27.860Z,24.82
2022-08-05T16:43:00.067Z,24.84
2022-08-05T16:43:32.461Z,24.84
2022-08-05T16:44:04.736Z,24.82
2022-08-05T16:44:36.334Z,24.77
2022-08-05T16:46:04.344Z,24.78
2022-08-05T16:46:06.635Z,24.76
2022-08-05T16:46:41.264Z,24.77
2022-08-05T16:47:36.170Z,24.76
2022-08-05T16:48:25.422Z,24.74
2022-08-05T16:48:57.838Z,24.79
2022-08-05T16:49:29.396Z,24.79
2022-08-05T16:50:00.925Z,24.79
2022-08-05T16:50:32.432Z,24.79
2022-08-05T16:51:09.652Z,24.78
2022-08-05T16:51:42.920Z,24.79
2022-08-05T16:52:22.735Z,24.74
2022-08-05T16:53:12.559Z,24.76
2022-08-05T16:54:03.171Z,24.78
2022-08-05T16:54:37.936Z,24.72
2022-08-05T16:55:10.635Z,24.73
2022-08-05T16:55:46.780Z,24.72
2022-08-05T16:56:19.022Z,24.75
2022-08-05T16:56:51.969Z,24.73
2022-08-05T16:57:26.765Z,24.73
2022-08-05T16:58:15.531Z,24.74
2022-08-05T16:58:51.667Z,24.73
2022-08-05T16:59:23.292Z,24.71
2022-08-05T17:00:03.112Z,24.74
2022-08-05T17:00:37.694Z,24.74
2022-08-05T17:01:10.593Z,24.72
2022-08-05T17:01:53.096Z,24.74
2022-08-05T17:02:27.242Z,24.71
2022-08-05T17:02:59.984Z,24.66
2022-08-05T17:03:31.655Z,24.67
2022-08-05T17:04:04.613Z,24.67
2022-08-05T17:04:36.185Z,24.66
2022-08-05T17:05:11.941Z,24.70
2022-08-05T17:05:44.207Z,24.70
2022-08-05T17:06:24.730Z,24.69
2022-08-05T17:07:00.339Z,24.70
2022-08-05T17:07:39.272Z,24.64
2022-08-05T17:08:15.439Z,24.66
2022-08-05T17:09:07.003Z,24.63
2022-08-05T17:09:57.770Z,24.65
2022-08-05T17:10:30.480Z,24.62
2022-08-05T17:11:02.665Z,24.57
2022-08-05T17:11:36.016Z,24.64
2022-08-05T17:12:22.621Z,24.65
2022-08-05T17:13:17.151Z,24.65
2022-08-05T17:14:00.647Z,24.65
2022-08-05T17:14:38.187Z,24.66
2022-08-05T17:15:10.245Z,24.66
2022-08-05T17:15:48.685Z,24.65
2022-08-05T17:16:33.027Z,24.66
2022-08-05T17:17:14.491Z,24.63
2022-08-05T17:17:50.075Z,24.66
2022-08-05T17:18:26.873Z,24.64
2022-08-05T17:18:58.647Z,24.66
2022-08-05T17:19:30.167Z,24.66
2022-08-05T17:20:02.547Z,24.62
2022-08-05T17:20:34.527Z,24.65
2022-08-05T17:21:12.188Z,24.62
2022-08-05T17:21:51.532Z,24.67
2022-08-05T17:22:25.313Z,24.65
2022-08-05T17:22:57.398Z,24.63
2022-08-05T17:24:04.828Z,24.63
2022-08-05T17:24:33.939Z,24.61
2022-08-05T17:25:09.742Z,24.62
2022-08-05T17:25:58.620Z,24.61
2022-08-05T17:26:30.712Z,24.63
2022-08-05T17:27:02.293Z,24.62
2022-08-05T17:27:34.523Z,24.58
2022-08-05T17:28:06.355Z,24.60
2022-08-05T17:28:39.435Z,24.63
2022-08-05T17:29:13.259Z,24.61
2022-08-05T17:29:45.729Z,24.63
2022-08-05T17:30:28.275Z,24.60
2022-08-05T17:31:00.798Z,24.62
2022-08-05T17:31:58.198Z,24.60
2022-08-05T17:32:33.794Z,24.57
2022-08-05T17:33:06.461Z,24.57
2022-08-05T17:33:48.091Z,24.60
2022-08-05T17:34:29.543Z,24.58